Time;durP1;ratioP1;P1;durP2;ratioP2;P2;SDS_P1;SDS_P2;PMS_P1;PMS_P2;Temp;Humidity;BMP_temperature;BMP_pressure;BME280_temperature;BME280_humidity;BME280_pressure;Samples;Min_cycle;Max_cycle;Signal;HPM_P1;HPM_P2
2021/03/09 00:00:12;;;;;;;;;13.50;10.00;;;;;-142.71;100.00;64517.53;3725365;38;21012;-61
2021/03/09 00:02:39;;;;;;;;;14.25;10.50;;;;;-142.71;100.00;64517.53;3724676;37;21287;-62
2021/03/09 00:05:07;;;;;;;;;16.00;11.00;;;;;-142.71;100.00;64517.53;3725374;37;21320;-61
2021/03/09 00:07:34;;;;;;;;;15.00;14.25;;;;;-142.71;100.00;64517.53;3725322;37;21339;-61
2021/03/09 00:10:05;;;;;;;;;14.75;13.00;;;;;-142.71;100.00;64517.53;3725221;37;21317;-61
2021/03/09 00:12:31;;;;;;;;;12.50;10.00;;;;;-142.71;100.00;64517.53;3724601;37;21373;-61
2021/03/09 00:14:57;;;;;;;;;17.50;13.75;;;;;-142.71;100.00;64517.53;3725106;37;21583;-60
2021/03/09 00:17:24;;;;;;;;;15.25;14.25;;;;;-142.71;100.00;64517.53;3725132;38;21327;-61
2021/03/09 00:19:56;;;;;;;;;13.75;13.75;;;;;-142.71;100.00;64517.53;3724956;38;21348;-60
2021/03/09 00:22:24;;;;;;;;;16.75;14.00;;;;;-142.71;100.00;64517.53;3724726;37;21289;-61
2021/03/09 00:24:50;;;;;;;;;16.25;14.25;;;;;-142.71;100.00;64517.53;3724763;37;21331;-61
2021/03/09 00:27:16;;;;;;;;;14.00;12.50;;;;;-142.71;100.00;64517.53;3725166;38;21359;-60
2021/03/09 00:29:43;;;;;;;;;15.00;13.75;;;;;-142.71;100.00;64517.53;3725127;38;21300;-61
2021/03/09 00:32:10;;;;;;;;;13.00;11.75;;;;;-142.71;100.00;64517.53;3725206;37;21338;-60
2021/03/09 00:34:37;;;;;;;;;12.25;10.00;;;;;-142.71;100.00;64517.53;3725237;37;21293;-60
2021/03/09 00:37:05;;;;;;;;;17.00;13.50;;;;;-142.71;100.00;64517.53;3725224;38;21291;-59
2021/03/09 00:39:32;;;;;;;;;23.00;15.00;;;;;-142.71;100.00;64517.53;3725123;38;21301;-60
2021/03/09 00:42:01;;;;;;;;;12.00;9.25;;;;;-142.71;100.00;64517.53;3724963;37;21340;-61
2021/03/09 00:44:28;;;;;;;;;13.50;12.50;;;;;-142.71;100.00;64517.53;3725047;37;21245;-61
2021/03/09 00:47:01;;;;;;;;;13.50;13.25;;;;;-142.71;100.00;64517.53;3724865;38;21331;-62
2021/03/09 00:49:27;;;;;;;;;12.50;12.00;;;;;-142.71;100.00;64517.53;3724811;37;21285;-60
2021/03/09 00:51:53;;;;;;;;;17.00;13.50;;;;;-142.71;100.00;64517.53;3725213;37;21326;-59
2021/03/09 00:54:20;;;;;;;;;14.50;13.00;;;;;-142.71;100.00;64517.53;3725190;38;21236;-61
2021/03/09 00:56:48;;;;;;;;;9.25;8.75;;;;;-142.71;100.00;64517.53;3725070;37;21301;-60
2021/03/09 00:59:16;;;;;;;;;13.25;11.75;;;;;-142.71;100.00;64517.53;3724094;37;21161;-60
2021/03/09 01:01:49;;;;;;;;;15.75;11.25;;;;;-142.71;100.00;64517.53;3724567;38;21255;-58
2021/03/09 01:04:15;;;;;;;;;13.00;11.00;;;;;-142.71;100.00;64517.53;3724680;37;21235;-60
2021/03/09 01:06:42;;;;;;;;;13.25;13.25;;;;;-142.71;100.00;64517.53;3725245;37;21262;-62
2021/03/09 01:09:08;;;;;;;;;10.50;9.25;;;;;-142.71;100.00;64517.53;3724742;37;21022;-62
2021/03/09 01:11:35;;;;;;;;;16.50;12.75;;;;;-142.71;100.00;64517.53;3725208;37;21253;-61
2021/03/09 01:14:02;;;;;;;;;17.25;15.25;;;;;-142.71;100.00;64517.53;3725185;37;21271;-61
2021/03/09 01:16:29;;;;;;;;;17.00;16.50;;;;;-142.71;100.00;64517.53;3724887;38;21262;-60
2021/03/09 01:18:56;;;;;;;;;12.00;11.75;;;;;-142.71;100.00;64517.53;3725061;37;21263;-60
2021/03/09 01:21:23;;;;;;;;;13.75;11.50;;;;;-142.71;100.00;64517.53;3725261;38;21227;-61
2021/03/09 01:23:53;;;;;;;;;13.25;12.25;;;;;-142.71;100.00;64517.53;3725134;38;21204;-61
2021/03/09 01:26:20;;;;;;;;;9.25;7.00;;;;;-142.71;100.00;64517.53;3725263;37;21228;-60
2021/03/09 01:28:46;;;;;;;;;13.75;13.00;;;;;-142.71;100.00;64517.53;3725002;37;21183;-60
2021/03/09 01:31:19;;;;;;;;;12.75;12.25;;;;;-142.71;100.00;64517.53;3725087;38;21201;-61
2021/03/09 01:33:45;;;;;;;;;12.75;12.50;;;;;-142.71;100.00;64517.53;3725228;37;21236;-63
2021/03/09 01:36:12;;;;;;;;;14.00;12.00;;;;;-142.71;100.00;64517.53;3725348;38;21189;-62
2021/03/09 01:38:39;;;;;;;;;15.75;10.00;;;;;-142.71;100.00;64517.53;3725137;37;21457;-60
2021/03/09 01:41:05;;;;;;;;;17.50;13.50;;;;;-142.71;100.00;64517.53;3725194;38;21260;-62
2021/03/09 01:43:32;;;;;;;;;20.75;15.25;;;;;-142.71;100.00;64517.53;3725105;37;21210;-61
2021/03/09 01:45:59;;;;;;;;;12.50;10.50;;;;;-142.71;100.00;64517.53;3725169;37;21213;-62
2021/03/09 01:48:32;;;;;;;;;13.00;12.00;;;;;-142.71;100.00;64517.53;3725006;38;21207;-61
2021/03/09 01:50:59;;;;;;;;;14.25;12.00;;;;;-142.71;100.00;64517.53;3725146;38;21134;-62
2021/03/09 01:53:29;;;;;;;;;18.50;14.75;;;;;-142.71;100.00;64517.53;3724868;37;21197;-61
2021/03/09 01:56:00;;;;;;;;;16.50;16.00;;;;;-142.71;100.00;64517.53;3725278;37;21198;-62
2021/03/09 01:58:30;;;;;;;;;16.00;14.50;;;;;-142.71;100.00;64517.53;3724653;38;21302;-62
2021/03/09 02:00:57;;;;;;;;;13.50;12.75;;;;;-142.71;100.00;64517.53;3725248;38;21180;-63
2021/03/09 02:03:28;;;;;;;;;19.75;16.25;;;;;-142.71;100.00;64517.53;3725085;37;21168;-61
2021/03/09 02:06:00;;;;;;;;;15.25;13.25;;;;;-142.71;100.00;64517.53;3724803;38;21187;-62
2021/03/09 02:08:27;;;;;;;;;16.50;13.00;;;;;-142.71;100.00;64517.53;3725126;37;21178;-62
2021/03/09 02:11:02;;;;;;;;;20.75;16.50;;;;;-142.71;100.00;64517.53;3725209;37;21243;-61
2021/03/09 02:13:53;;;;;;;;;16.75;15.00;;;;;-142.71;100.00;64517.53;3725147;38;21187;-62
2021/03/09 02:16:39;;;;;;;;;16.75;16.00;;;;;-142.71;100.00;64517.53;3725142;37;21226;-61
2021/03/09 02:19:47;;;;;;;;;17.50;16.50;;;;;-142.71;100.00;64517.53;3724983;37;21195;-62
2021/03/09 02:23:17;;;;;;;;;14.50;13.00;;;;;-142.71;100.00;64517.53;3724776;38;21249;-61
2021/03/09 02:26:27;;;;;;;;;11.25;10.50;;;;;-142.71;100.00;64517.53;3725179;38;21134;-61
2021/03/09 02:29:58;;;;;;;;;14.00;11.75;;;;;-142.71;100.00;64517.53;3725427;37;21083;-62
2021/03/09 02:32:29;;;;;;;;;14.25;12.75;;;;;-142.71;100.00;64517.53;3725166;37;21114;-61
2021/03/09 02:34:59;;;;;;;;;16.25;13.75;;;;;-142.71;100.00;64517.53;3725163;37;21237;-60
2021/03/09 02:37:34;;;;;;;;;15.50;13.00;;;;;-142.71;100.00;64517.53;3724939;38;21149;-61
2021/03/09 02:40:05;;;;;;;;;19.50;17.25;;;;;-142.71;100.00;64517.53;3725070;37;21222;-61
2021/03/09 02:42:34;;;;;;;;;22.00;18.00;;;;;-142.71;100.00;64517.53;3724856;37;21300;-62
2021/03/09 02:45:04;;;;;;;;;26.25;22.00;;;;;-142.71;100.00;64517.53;3725165;37;21221;-61
2021/03/09 02:47:33;;;;;;;;;23.25;19.25;;;;;-142.71;100.00;64517.53;3724984;38;20934;-60
2021/03/09 02:50:04;;;;;;;;;33.75;25.00;;;;;-142.71;100.00;64517.53;3725159;38;21215;-61
2021/03/09 02:52:41;;;;;;;;;25.25;21.50;;;;;-142.71;100.00;64517.53;3724894;37;21226;-61
2021/03/09 02:55:12;;;;;;;;;29.00;21.50;;;;;-142.71;100.00;64517.53;3724874;37;21186;-61
2021/03/09 02:57:40;;;;;;;;;24.25;17.75;;;;;-142.71;100.00;64517.53;3724914;38;21202;-61
2021/03/09 03:00:09;;;;;;;;;23.00;21.50;;;;;-142.71;100.00;64517.53;3725240;37;21195;-61
2021/03/09 03:02:39;;;;;;;;;23.50;19.00;;;;;-142.71;100.00;64517.53;3725334;38;21213;-60
2021/03/09 03:05:09;;;;;;;;;26.25;22.50;;;;;-142.71;100.00;64517.53;3724871;37;21179;-60
2021/03/09 03:07:40;;;;;;;;;26.75;23.75;;;;;-142.71;100.00;64517.53;3725301;38;21209;-61
2021/03/09 03:10:18;;;;;;;;;25.00;19.75;;;;;-142.71;100.00;64517.53;3724912;38;21196;-63
2021/03/09 03:12:48;;;;;;;;;22.75;19.25;;;;;-142.71;100.00;64517.53;3725183;38;21185;-61
2021/03/09 03:15:16;;;;;;;;;30.00;24.00;;;;;-142.71;100.00;64517.53;3725245;38;21276;-62
2021/03/09 03:17:44;;;;;;;;;24.25;21.00;;;;;-142.71;100.00;64517.53;3725470;37;21200;-62
2021/03/09 03:20:17;;;;;;;;;28.25;20.75;;;;;-142.71;100.00;64517.53;3725342;37;21186;-61
2021/03/09 03:22:46;;;;;;;;;26.75;23.25;;;;;-142.71;100.00;64517.53;3724613;37;21165;-59
2021/03/09 03:25:14;;;;;;;;;24.25;18.00;;;;;-142.71;100.00;64517.53;3725144;37;21183;-60
2021/03/09 03:27:42;;;;;;;;;26.00;19.00;;;;;-142.71;100.00;64517.53;3724944;37;21156;-61
2021/03/09 03:30:14;;;;;;;;;20.00;15.75;;;;;-142.71;100.00;64517.53;3725343;38;21152;-59
2021/03/09 03:32:42;;;;;;;;;22.00;19.75;;;;;-142.71;100.00;64517.53;3725280;37;20695;-60
2021/03/09 03:35:11;;;;;;;;;25.75;20.25;;;;;-142.71;100.00;64517.53;3724914;38;21158;-61
2021/03/09 03:37:40;;;;;;;;;21.25;17.25;;;;;-142.71;100.00;64517.53;3725169;37;21179;-61
2021/03/09 03:40:17;;;;;;;;;16.50;14.50;;;;;-142.71;100.00;64517.53;3725179;37;21133;-60
2021/03/09 03:42:44;;;;;;;;;20.00;17.00;;;;;-142.71;100.00;64517.53;3725154;37;21156;-60
2021/03/09 03:45:14;;;;;;;;;20.75;16.25;;;;;-142.71;100.00;64517.53;3725168;37;21142;-60
2021/03/09 03:47:41;;;;;;;;;18.50;15.50;;;;;-142.71;100.00;64517.53;3724828;38;21232;-60
2021/03/09 03:50:15;;;;;;;;;15.25;11.25;;;;;-142.71;100.00;64517.53;3725193;37;21106;-59
2021/03/09 03:52:55;;;;;;;;;22.50;19.00;;;;;-142.71;100.00;64517.53;3725275;37;21087;-59
2021/03/09 03:55:53;;;;;;;;;14.00;13.50;;;;;-142.71;100.00;64517.53;3725205;37;21109;-59
2021/03/09 03:58:32;;;;;;;;;23.75;17.25;;;;;-142.71;100.00;64517.53;3724892;38;21075;-61
2021/03/09 04:00:59;;;;;;;;;18.25;14.75;;;;;-142.71;100.00;64517.53;3724771;38;21125;-61
2021/03/09 04:03:29;;;;;;;;;19.75;16.25;;;;;-142.71;100.00;64517.53;3725045;38;21116;-61
2021/03/09 04:05:59;;;;;;;;;14.50;14.00;;;;;-142.71;100.00;64517.53;3725325;38;21043;-60
2021/03/09 04:08:25;;;;;;;;;20.25;16.75;;;;;-142.71;100.00;64517.53;3725284;37;21127;-61
2021/03/09 04:10:54;;;;;;;;;14.25;9.75;;;;;-142.71;100.00;64517.53;3725498;37;21100;-60
2021/03/09 04:13:25;;;;;;;;;20.25;14.25;;;;;-142.71;100.00;64517.53;3725269;38;21073;-60
2021/03/09 04:15:54;;;;;;;;;26.00;20.50;;;;;-142.71;100.00;64517.53;3724969;37;21077;-61
2021/03/09 04:18:25;;;;;;;;;20.75;16.75;;;;;-142.71;100.00;64517.53;3725354;37;21117;-61
2021/03/09 04:20:54;;;;;;;;;24.50;20.25;;;;;-142.71;100.00;64517.53;3726750;37;21076;-61
2021/03/09 04:23:21;;;;;;;;;19.00;17.75;;;;;-142.71;100.00;64517.53;3725932;37;21103;-61
2021/03/09 04:25:50;;;;;;;;;21.00;17.25;;;;;-142.71;100.00;64517.53;3726000;38;21082;-61
2021/03/09 04:28:17;;;;;;;;;16.25;10.50;;;;;-142.71;100.00;64517.53;3725003;37;21161;-60
2021/03/09 04:30:46;;;;;;;;;18.75;16.25;;;;;-142.71;100.00;64517.53;3725223;37;21038;-60
2021/03/09 04:33:16;;;;;;;;;21.50;16.25;;;;;-142.71;100.00;64517.53;3724822;37;21356;-61
2021/03/09 04:35:48;;;;;;;;;20.25;19.00;;;;;-142.71;100.00;64517.53;3724792;38;21049;-61
2021/03/09 04:38:17;;;;;;;;;26.25;23.50;;;;;-142.71;100.00;64517.53;3724541;38;21070;-60
2021/03/09 04:40:45;;;;;;;;;26.75;24.25;;;;;-142.71;100.00;64517.53;3725386;38;21068;-62
2021/03/09 04:43:12;;;;;;;;;26.00;20.75;;;;;-142.71;100.00;64517.53;3724985;38;21082;-63
2021/03/09 04:45:39;;;;;;;;;32.50;25.00;;;;;-142.71;100.00;64517.53;3725446;37;21036;-63
2021/03/09 04:48:08;;;;;;;;;86.25;62.25;;;;;-142.71;100.00;64517.53;3725407;37;21045;-60
2021/03/09 04:50:37;;;;;;;;;34.25;24.50;;;;;-142.71;100.00;64517.53;3725048;37;17878;-61
2021/03/09 04:53:07;;;;;;;;;31.75;23.75;;;;;-142.71;100.00;64517.53;3724888;38;20956;-62
2021/03/09 04:55:35;;;;;;;;;40.25;32.50;;;;;-142.71;100.00;64517.53;3724922;37;21023;-62
2021/03/09 04:58:01;;;;;;;;;42.25;31.50;;;;;-142.71;100.00;64517.53;3724933;37;21069;-61
2021/03/09 05:00:29;;;;;;;;;42.25;31.50;;;;;-142.71;100.00;64517.53;3725403;38;21042;-60
2021/03/09 05:02:56;;;;;;;;;42.00;32.00;;;;;-142.71;100.00;64517.53;3724945;38;21058;-59
2021/03/09 05:05:23;;;;;;;;;31.00;23.50;;;;;-142.71;100.00;64517.53;3725295;37;21045;-61
2021/03/09 05:07:51;;;;;;;;;30.75;25.25;;;;;-142.71;100.00;64517.53;3725152;37;21062;-60
2021/03/09 05:10:18;;;;;;;;;28.25;25.50;;;;;-142.71;100.00;64517.53;3725404;38;21038;-60
2021/03/09 05:12:49;;;;;;;;;30.00;23.75;;;;;-142.71;100.00;64517.53;3725365;37;21046;-59
2021/03/09 05:15:18;;;;;;;;;20.75;19.75;;;;;-142.71;100.00;64517.53;3725264;37;21004;-59
2021/03/09 05:17:45;;;;;;;;;29.75;26.50;;;;;-142.71;100.00;64517.53;3725367;38;21111;-60
2021/03/09 05:20:14;;;;;;;;;40.75;30.75;;;;;-142.71;100.00;64517.53;3725244;37;21032;-60
2021/03/09 05:22:41;;;;;;;;;67.00;51.75;;;;;-142.71;100.00;64517.53;3725394;37;21033;-61
2021/03/09 05:25:11;;;;;;;;;63.50;51.50;;;;;-142.71;100.00;64517.53;3724868;38;21026;-62
2021/03/09 05:27:40;;;;;;;;;60.75;47.75;;;;;-142.71;100.00;64517.53;3725475;37;21009;-60
2021/03/09 05:30:10;;;;;;;;;53.75;43.25;;;;;-142.71;100.00;64517.53;3725714;37;21008;-61
2021/03/09 05:32:36;;;;;;;;;46.50;39.25;;;;;-142.71;100.00;64517.53;3725022;37;21011;-61
2021/03/09 05:35:05;;;;;;;;;40.00;33.00;;;;;-142.71;100.00;64517.53;3725369;38;20994;-60
2021/03/09 05:37:32;;;;;;;;;32.00;28.75;;;;;-142.71;100.00;64517.53;3725081;37;21018;-61
2021/03/09 05:39:59;;;;;;;;;47.25;35.25;;;;;-142.71;100.00;64517.53;3725288;38;20990;-62
2021/03/09 05:42:25;;;;;;;;;48.25;41.00;;;;;-142.71;100.00;64517.53;3725027;38;20990;-61
2021/03/09 05:44:51;;;;;;;;;37.25;34.50;;;;;-142.71;100.00;64517.53;3725654;37;20985;-60
2021/03/09 05:47:18;;;;;;;;;45.50;37.25;;;;;-142.71;100.00;64517.53;3725379;38;20985;-62
2021/03/09 05:49:48;;;;;;;;;39.50;29.50;;;;;-142.71;100.00;64517.53;3725179;38;20998;-60
2021/03/09 05:52:20;;;;;;;;;39.25;35.75;;;;;-142.71;100.00;64517.53;3725096;37;20994;-60
2021/03/09 05:54:49;;;;;;;;;38.75;30.75;;;;;-142.71;100.00;64517.53;3724935;37;20966;-61
2021/03/09 05:57:15;;;;;;;;;34.50;30.25;;;;;-142.71;100.00;64517.53;3725311;38;20986;-61
2021/03/09 05:59:42;;;;;;;;;36.75;32.25;;;;;-142.71;100.00;64517.53;3725236;37;20967;-61
2021/03/09 06:02:10;;;;;;;;;30.75;29.50;;;;;-142.71;100.00;64517.53;3725357;38;20989;-61
2021/03/09 06:04:38;;;;;;;;;39.50;35.25;;;;;-142.71;100.00;64517.53;3725097;37;20963;-61
2021/03/09 06:07:06;;;;;;;;;33.50;29.75;;;;;-142.71;100.00;64517.53;3725366;37;20983;-60
2021/03/09 06:09:41;;;;;;;;;34.00;23.75;;;;;-142.71;100.00;64517.53;3725178;37;20955;-61
2021/03/09 06:12:27;;;;;;;;;19.25;17.75;;;;;-142.71;100.00;64517.53;3725557;38;20952;-62
2021/03/09 06:15:04;;;;;;;;;27.25;25.25;;;;;-142.71;100.00;64517.53;3725415;38;20923;-64
2021/03/09 06:17:37;;;;;;;;;35.75;25.75;;;;;-142.71;100.00;64517.53;3725855;38;20948;-64
2021/03/09 06:20:09;;;;;;;;;24.25;22.50;;;;;-142.71;100.00;64517.53;3726268;37;20927;-65
2021/03/09 06:22:42;;;;;;;;;22.25;18.50;;;;;-142.71;100.00;64517.53;3725093;37;20941;-64
2021/03/09 06:25:14;;;;;;;;;22.00;22.00;;;;;-142.71;100.00;64517.53;3725524;37;20946;-65
2021/03/09 06:27:41;;;;;;;;;21.00;17.50;;;;;-142.71;100.00;64517.53;3725292;37;20956;-68
2021/03/09 06:30:34;;;;;;;;;28.25;26.00;;;;;-142.71;100.00;64517.53;3725216;37;20920;-66
2021/03/09 06:33:03;;;;;;;;;21.00;18.75;;;;;-142.71;100.00;64517.53;3725383;37;20929;-64
2021/03/09 06:35:46;;;;;;;;;19.25;19.00;;;;;-142.71;100.00;64517.53;3725286;37;20921;-61
2021/03/09 06:38:38;;;;;;;;;25.50;22.25;;;;;-142.71;100.00;64517.53;3725194;37;20803;-65
2021/03/09 06:41:17;;;;;;;;;22.25;19.50;;;;;-142.71;100.00;64517.53;3725232;38;20886;-63
2021/03/09 06:43:47;;;;;;;;;22.50;20.00;;;;;-142.71;100.00;64517.53;3725585;38;20910;-63
2021/03/09 06:46:19;;;;;;;;;17.00;14.25;;;;;-142.71;100.00;64517.53;3725404;38;20887;-60
2021/03/09 06:48:50;;;;;;;;;23.75;20.00;;;;;-142.71;100.00;64517.53;3725705;37;20895;-59
2021/03/09 06:51:31;;;;;;;;;20.75;18.50;;;;;-142.71;100.00;64517.53;3725505;37;20895;-59
2021/03/09 06:53:59;;;;;;;;;18.75;14.75;;;;;-142.71;100.00;64517.53;3725470;37;20923;-59
2021/03/09 06:56:27;;;;;;;;;24.50;20.00;;;;;-142.71;100.00;64517.53;3725609;37;20924;-60
2021/03/09 07:04:00;;;;;;;;;19.50;17.75;;;;;-142.71;100.00;64517.53;3726198;38;19634;-60
2021/03/09 07:06:26;;;;;;;;;25.75;19.00;;;;;-142.71;100.00;64517.53;3727808;38;19770;-56
2021/03/09 07:08:52;;;;;;;;;20.25;14.00;;;;;-142.71;100.00;64517.53;3727866;38;19693;-58
2021/03/09 07:11:19;;;;;;;;;17.00;15.00;;;;;-142.71;100.00;64517.53;3725832;38;20682;-56
2021/03/09 07:13:47;;;;;;;;;13.50;13.50;;;;;-142.71;100.00;64517.53;3726742;37;19680;-54
2021/03/09 07:16:15;;;;;;;;;10.00;9.25;;;;;-142.71;100.00;64517.53;3728591;37;20666;-60
2021/03/09 07:18:48;;;;;;;;;18.25;15.00;;;;;-142.71;100.00;64517.53;3728760;37;20628;-59
2021/03/09 07:21:16;;;;;;;;;21.50;17.75;;;;;-142.71;100.00;64517.53;3726421;38;19683;-57
2021/03/09 07:23:43;;;;;;;;;17.75;14.75;;;;;-142.71;100.00;64517.53;3725851;38;21686;-58
2021/03/09 07:26:15;;;;;;;;;17.75;14.00;;;;;-142.71;100.00;64517.53;3725116;37;20427;-57
2021/03/09 07:28:50;;;;;;;;;14.50;14.00;;;;;-142.71;100.00;64517.53;3725758;37;21690;-56
2021/03/09 07:31:24;;;;;;;;;10.50;9.00;;;;;-142.71;100.00;64517.53;3725614;37;21676;-60
2021/03/09 07:33:52;;;;;;;;;6.50;6.25;;;;;-142.71;100.00;64517.53;3726790;38;21599;-60
2021/03/09 07:36:21;;;;;;;;;7.25;7.00;;;;;-142.71;100.00;64517.53;3725683;37;21561;-58
2021/03/09 07:38:51;;;;;;;;;20.25;17.75;;;;;-142.71;100.00;64517.53;3725021;37;21586;-57
2021/03/09 07:41:18;;;;;;;;;8.50;6.75;;;;;-142.71;100.00;64517.53;3725247;37;21645;-57
2021/03/09 07:43:45;;;;;;;;;8.00;7.50;;;;;-142.71;100.00;64517.53;3725421;38;21569;-60
2021/03/09 07:46:16;;;;;;;;;14.00;13.00;;;;;-142.71;100.00;64517.53;3725394;37;21543;-59
2021/03/09 07:48:47;;;;;;;;;14.25;10.75;;;;;-142.71;100.00;64517.53;3725444;38;21745;-60
2021/03/09 07:51:13;;;;;;;;;10.75;10.00;;;;;-142.71;100.00;64517.53;3725095;37;21520;-60
2021/03/09 07:54:08;;;;;;;;;10.00;8.00;;;;;-142.71;100.00;64517.53;3725528;38;21587;-56
2021/03/09 07:56:35;;;;;;;;;7.00;6.00;;;;;-142.71;100.00;64517.53;3725556;38;21599;-59
2021/03/09 07:59:08;;;;;;;;;11.00;11.00;;;;;-142.71;100.00;64517.53;3725259;38;21492;-59
2021/03/09 08:01:49;;;;;;;;;11.75;10.00;;;;;-142.71;100.00;64517.53;3725133;38;21595;-58
2021/03/09 08:04:15;;;;;;;;;11.00;8.75;;;;;-142.71;100.00;64517.53;3725374;37;21586;-58
2021/03/09 08:06:46;;;;;;;;;9.75;6.75;;;;;-142.71;100.00;64517.53;3725258;37;21533;-60
2021/03/09 08:09:35;;;;;;;;;9.75;8.75;;;;;-142.71;100.00;64517.53;3725887;37;21530;-59
2021/03/09 08:12:23;;;;;;;;;7.00;7.00;;;;;-142.71;100.00;64517.53;3725696;37;21577;-59
2021/03/09 08:14:50;;;;;;;;;10.75;6.50;;;;;-142.71;100.00;64517.53;3725377;37;21549;-58
2021/03/09 08:17:32;;;;;;;;;11.00;8.00;;;;;-142.71;100.00;64517.53;3725167;37;21554;-58
2021/03/09 08:19:59;;;;;;;;;14.50;9.75;;;;;-142.71;100.00;64517.53;3725536;37;21490;-57
2021/03/09 08:22:43;;;;;;;;;9.25;8.00;;;;;-142.71;100.00;64517.53;3725710;38;21255;-57
2021/03/09 08:25:12;;;;;;;;;8.50;7.25;;;;;-142.71;100.00;64517.53;3729286;37;21156;-59
2021/03/09 08:27:40;;;;;;;;;7.00;6.75;;;;;-142.71;100.00;64517.53;3731402;38;21152;-58
2021/03/09 08:30:31;;;;;;;;;10.25;10.00;;;;;-142.71;100.00;64517.53;3725897;38;21154;-57
2021/03/09 08:33:23;;;;;;;;;6.75;6.00;;;;;-142.71;100.00;64517.53;3726031;37;21199;-57
2021/03/09 08:35:50;;;;;;;;;9.50;7.00;;;;;-142.71;100.00;64517.53;3725552;38;21148;-58
2021/03/09 08:38:19;;;;;;;;;11.75;8.00;;;;;-142.71;100.00;64517.53;3725359;37;21122;-57
2021/03/09 08:41:05;;;;;;;;;7.00;6.50;;;;;-142.71;100.00;64517.53;3726182;38;21155;-57
2021/03/09 08:43:39;;;;;;;;;8.00;6.75;;;;;-142.71;100.00;64517.53;3723436;37;21117;-58
2021/03/09 08:46:06;;;;;;;;;6.00;6.00;;;;;-142.71;100.00;64517.53;3722624;37;21106;-57
2021/03/09 08:48:47;;;;;;;;;6.75;6.00;;;;;-142.71;100.00;64517.53;3725629;37;21120;-57
2021/03/09 08:51:44;;;;;;;;;6.00;6.00;;;;;-142.71;100.00;64517.53;3725674;37;21139;-57
2021/03/09 08:54:47;;;;;;;;;5.00;2.75;;;;;-142.71;100.00;64517.53;3725697;38;21128;-57
2021/03/09 08:57:39;;;;;;;;;8.50;6.75;;;;;-142.71;100.00;64517.53;3725550;38;21062;-57
2021/03/09 09:00:09;;;;;;;;;5.00;3.00;;;;;-142.71;100.00;64517.53;3725819;37;21110;-58
2021/03/09 09:02:43;;;;;;;;;10.50;7.75;;;;;-142.71;100.00;64517.53;3726502;37;21118;-56
2021/03/09 09:05:12;;;;;;;;;7.25;6.00;;;;;-142.71;100.00;64517.53;3725705;38;21131;-56
2021/03/09 09:07:44;;;;;;;;;4.00;3.00;;;;;-142.71;100.00;64517.53;3726069;38;21101;-59
2021/03/09 09:10:25;;;;;;;;;5.00;5.00;;;;;-142.71;100.00;64517.53;3726314;38;21091;-58
2021/03/09 09:12:58;;;;;;;;;4.00;2.75;;;;;-142.71;100.00;64517.53;3726690;37;21096;-57
2021/03/09 09:15:26;;;;;;;;;5.50;5.50;;;;;-142.71;100.00;64517.53;3725545;38;21060;-57
2021/03/09 09:18:05;;;;;;;;;6.00;6.00;;;;;-142.71;100.00;64517.53;3725799;37;21095;-57
2021/03/09 09:20:51;;;;;;;;;6.25;6.00;;;;;-142.71;100.00;64517.53;3725375;38;21069;-57
2021/03/09 09:23:20;;;;;;;;;3.50;3.50;;;;;-142.71;100.00;64517.53;3725433;37;21053;-58
2021/03/09 09:25:57;;;;;;;;;6.50;5.00;;;;;-142.71;100.00;64517.53;3725862;37;21105;-60
2021/03/09 09:28:28;;;;;;;;;7.00;5.00;;;;;-142.71;100.00;64517.53;3725732;38;21053;-58
2021/03/09 09:31:16;;;;;;;;;3.25;3.00;;;;;-142.71;100.00;64517.53;3725705;38;21030;-58
2021/03/09 09:33:53;;;;;;;;;11.00;6.00;;;;;-142.71;100.00;64517.53;3725500;37;21241;-57
2021/03/09 09:36:21;;;;;;;;;3.25;2.00;;;;;-142.71;100.00;64517.53;3726276;37;21100;-57
2021/03/09 09:38:55;;;;;;;;;1.75;1.00;;;;;-142.71;100.00;64517.53;3725826;37;21049;-59
2021/03/09 09:41:22;;;;;;;;;5.25;4.00;;;;;-142.71;100.00;64517.53;3725714;37;21051;-58
2021/03/09 09:43:49;;;;;;;;;6.00;5.25;;;;;-142.71;100.00;64517.53;3725719;38;21038;-56
2021/03/09 09:46:36;;;;;;;;;2.25;2.25;;;;;-142.71;100.00;64517.53;3727588;38;21044;-57
2021/03/09 09:49:02;;;;;;;;;2.75;2.00;;;;;-142.71;100.00;64517.53;3726571;37;21192;-57
2021/03/09 09:51:29;;;;;;;;;6.00;6.00;;;;;-142.71;100.00;64517.53;3726537;37;21016;-59
2021/03/09 09:53:55;;;;;;;;;7.00;4.75;;;;;-142.71;100.00;64517.53;3725636;38;21054;-59
2021/03/09 09:56:26;;;;;;;;;4.75;4.75;;;;;-142.71;100.00;64517.53;3725947;37;21023;-58
2021/03/09 09:59:01;;;;;;;;;3.00;2.50;;;;;-142.71;100.00;64517.53;3725834;38;21038;-57
2021/03/09 10:01:52;;;;;;;;;3.50;3.25;;;;;-142.71;100.00;64517.53;3725656;37;21003;-57
2021/03/09 10:04:19;;;;;;;;;5.75;5.25;;;;;-142.71;100.00;64517.53;3725775;38;21005;-58
2021/03/09 10:06:47;;;;;;;;;7.75;6.75;;;;;-142.71;100.00;64517.53;3725553;37;21001;-59
2021/03/09 10:09:20;;;;;;;;;10.75;7.75;;;;;-142.71;100.00;64517.53;3724959;37;21105;-58
2021/03/09 10:11:58;;;;;;;;;16.25;10.00;;;;;-142.71;100.00;64517.53;3726134;38;21022;-59
2021/03/09 10:14:27;;;;;;;;;8.75;8.75;;;;;-142.71;100.00;64517.53;3725511;38;21099;-57
2021/03/09 10:16:54;;;;;;;;;4.00;4.00;;;;;-142.71;100.00;64517.53;3726245;37;21016;-60
2021/03/09 10:19:22;;;;;;;;;6.00;3.75;;;;;-142.71;100.00;64517.53;3726640;38;21017;-58
2021/03/09 10:21:55;;;;;;;;;7.00;6.25;;;;;-142.71;100.00;64517.53;3725547;37;20984;-58
2021/03/09 10:24:31;;;;;;;;;6.75;4.00;;;;;-142.71;100.00;64517.53;3725358;37;20999;-57
2021/03/09 10:26:59;;;;;;;;;7.75;6.00;;;;;-142.71;100.00;64517.53;3725661;38;20979;-59
2021/03/09 10:29:29;;;;;;;;;9.75;6.75;;;;;-142.71;100.00;64517.53;3725629;38;20995;-56
2021/03/09 10:32:04;;;;;;;;;6.00;6.00;;;;;-142.71;100.00;64517.53;3725663;37;21003;-57
2021/03/09 10:34:44;;;;;;;;;3.00;2.25;;;;;-142.71;100.00;64517.53;3726236;38;20978;-59
2021/03/09 10:37:12;;;;;;;;;4.50;3.50;;;;;-142.71;100.00;64517.53;3725614;38;20973;-56
2021/03/09 10:39:58;;;;;;;;;7.50;7.50;;;;;-142.71;100.00;64517.53;3726115;38;20971;-57
2021/03/09 10:42:55;;;;;;;;;3.00;3.00;;;;;-142.71;100.00;64517.53;3726256;37;20972;-57
2021/03/09 10:45:28;;;;;;;;;3.00;2.75;;;;;-142.71;100.00;64517.53;3726023;37;20989;-58
2021/03/09 10:48:02;;;;;;;;;5.75;4.00;;;;;-142.71;100.00;64517.53;3725937;37;20965;-59
2021/03/09 10:50:38;;;;;;;;;6.00;6.00;;;;;-142.71;100.00;64517.53;3725471;37;20963;-58
2021/03/09 10:53:05;;;;;;;;;7.75;5.00;;;;;-142.71;100.00;64517.53;3725528;37;20943;-57
2021/03/09 10:55:32;;;;;;;;;8.00;7.25;;;;;-142.71;100.00;64517.53;3725745;38;20961;-57
2021/03/09 10:57:59;;;;;;;;;6.00;6.00;;;;;-142.71;100.00;64517.53;3725628;37;20948;-58
2021/03/09 11:00:31;;;;;;;;;6.75;5.50;;;;;-142.71;100.00;64517.53;3725629;37;20968;-57
2021/03/09 11:02:57;;;;;;;;;9.50;8.25;;;;;-142.71;100.00;64517.53;3725882;38;20926;-60
2021/03/09 11:05:24;;;;;;;;;7.25;5.25;;;;;-142.71;100.00;64517.53;3725772;38;20959;-59
2021/03/09 11:07:50;;;;;;;;;11.00;8.75;;;;;-142.71;100.00;64517.53;3725747;38;21030;-56
2021/03/09 11:10:16;;;;;;;;;7.00;7.00;;;;;-142.71;100.00;64517.53;3725813;37;20922;-57
2021/03/09 11:12:52;;;;;;;;;6.00;6.00;;;;;-142.71;100.00;64517.53;3725690;37;20933;-60
2021/03/09 11:15:18;;;;;;;;;8.25;5.00;;;;;-142.71;100.00;64517.53;3725818;38;20930;-59
2021/03/09 11:17:48;;;;;;;;;4.25;3.75;;;;;-142.71;100.00;64517.53;3726092;37;20870;-59
2021/03/09 11:20:16;;;;;;;;;5.50;3.75;;;;;-142.71;100.00;64517.53;3725977;37;20943;-60
2021/03/09 11:22:43;;;;;;;;;8.50;7.50;;;;;-142.71;100.00;64517.53;3725456;37;21241;-59
2021/03/09 11:25:10;;;;;;;;;9.25;8.00;;;;;-142.71;100.00;64517.53;3726234;38;21252;-58